createdAt,value
2018-10-21T00:01:28.869Z,91.90
2018-10-21T00:03:57.326Z,91.80
2018-10-21T00:06:25.763Z,91.90
2018-10-21T00:08:54.545Z,92.00
2018-10-21T00:11:22.964Z,92.20
2018-10-21T00:13:51.436Z,92.20
2018-10-21T00:16:19.949Z,92.50
2018-10-21T00:18:48.465Z,92.50
2018-10-21T00:21:17.041Z,92.90
2018-10-21T00:23:45.430Z,92.30
2018-10-21T00:26:13.945Z,92.50
2018-10-21T00:28:42.732Z,92.40
2018-10-21T00:31:11.186Z,92.30
2018-10-21T00:33:39.620Z,92.50
2018-10-21T00:36:08.175Z,92.30
2018-10-21T00:38:36.580Z,92.40
2018-10-21T00:41:05.530Z,92.60
2018-10-21T00:43:34.345Z,92.60
2018-10-21T00:46:02.905Z,92.70
2018-10-21T00:48:31.385Z,92.70
2018-10-21T00:50:59.976Z,93.50
2018-10-21T00:53:28.457Z,92.70
2018-10-21T00:55:56.940Z,92.60
2018-10-21T00:58:25.821Z,92.60
2018-10-21T01:00:54.403Z,93.00
2018-10-21T01:03:22.880Z,93.20
2018-10-21T01:05:51.357Z,93.30
2018-10-21T01:08:19.811Z,93.20
2018-10-21T01:10:48.270Z,93.10
2018-10-21T01:13:16.770Z,93.20
2018-10-21T01:15:48.657Z,92.90
2018-10-21T01:18:17.149Z,92.90
2018-10-21T01:20:45.545Z,92.60
2018-10-21T01:23:14.093Z,92.70
2018-10-21T01:25:42.572Z,92.60
2018-10-21T01:28:11.061Z,92.60
2018-10-21T01:30:39.536Z,91.90
2018-10-21T01:33:11.116Z,91.50
2018-10-21T01:35:39.548Z,91.50
2018-10-21T01:38:08.091Z,91.30
2018-10-21T01:40:38.647Z,91.30
2018-10-21T01:43:08.287Z,91.90
2018-10-21T01:45:36.780Z,92.10
2018-10-21T01:48:06.616Z,92.40
2018-10-21T01:50:35.142Z,93.00
2018-10-21T01:53:04.707Z,93.00
2018-10-21T01:55:33.210Z,92.80
2018-10-21T01:58:02.120Z,93.90
2018-10-21T02:00:31.406Z,93.80
2018-10-21T02:03:00.215Z,93.70
2018-10-21T02:05:29.083Z,94.60
2018-10-21T02:07:57.684Z,94.30
2018-10-21T02:10:26.263Z,94.80
2018-10-21T02:12:54.956Z,95.90
2018-10-21T02:15:23.632Z,95.80
2018-10-21T02:17:52.066Z,96.20
2018-10-21T02:20:21.411Z,96.60
2018-10-21T02:22:50.290Z,96.60
2018-10-21T02:25:18.881Z,96.70
2018-10-21T02:27:48.193Z,96.30
2018-10-21T02:30:18.526Z,96.40
2018-10-21T02:32:48.422Z,96.50
2018-10-21T02:35:17.513Z,96.60
2018-10-21T02:37:46.301Z,96.90
2018-10-21T02:40:23.657Z,96.90
2018-10-21T02:42:52.171Z,97.10
2018-10-21T02:45:20.664Z,96.20
2018-10-21T02:47:49.121Z,96.50
2018-10-21T02:50:17.596Z,96.40
2018-10-21T02:52:46.081Z,95.60
2018-10-21T02:55:14.560Z,96.20
2018-10-21T02:57:43.038Z,96.10
2018-10-21T03:00:11.480Z,95.80
2018-10-21T03:02:40.012Z,95.00
2018-10-21T03:05:08.817Z,95.50
2018-10-21T03:07:37.257Z,95.40
2018-10-21T03:10:05.954Z,95.90
2018-10-21T03:12:34.432Z,95.50
2018-10-21T03:15:02.936Z,95.70
2018-10-21T03:17:31.347Z,95.80
2018-10-21T03:19:59.866Z,95.70
2018-10-21T03:22:28.348Z,95.80
2018-10-21T03:24:56.821Z,96.20
2018-10-21T03:27:25.307Z,96.40
2018-10-21T03:29:53.783Z,96.40
2018-10-21T03:32:22.268Z,96.60
2018-10-21T03:34:53.710Z,96.40
2018-10-21T03:37:22.208Z,96.00
2018-10-21T03:39:50.672Z,95.80
2018-10-21T03:42:19.112Z,95.70
2018-10-21T03:44:47.577Z,96.30
2018-10-21T03:47:16.088Z,96.20
2018-10-21T03:49:44.593Z,96.00
2018-10-21T03:52:13.144Z,96.10
2018-10-21T03:54:45.686Z,96.00
2018-10-21T03:57:14.234Z,95.80
2018-10-21T03:59:42.707Z,96.20
2018-10-21T04:02:11.150Z,96.10
2018-10-21T04:04:39.605Z,95.60
2018-10-21T04:07:08.120Z,95.80
2018-10-21T04:09:36.610Z,95.80
2018-10-21T04:12:05.477Z,95.90
2018-10-21T04:14:34.011Z,95.60
2018-10-21T04:17:02.571Z,96.10
2018-10-21T04:19:31.000Z,96.10
2018-10-21T04:21:59.484Z,96.50
2018-10-21T04:24:27.917Z,96.20
2018-10-21T04:27:03.149Z,96.10
2018-10-21T04:29:31.667Z,96.10
2018-10-21T04:32:00.128Z,95.90
2018-10-21T04:34:28.614Z,96.00
2018-10-21T04:37:05.997Z,96.00
2018-10-21T04:39:43.771Z,96.60
2018-10-21T04:42:12.257Z,96.50
2018-10-21T04:44:40.750Z,96.50
2018-10-21T04:47:09.346Z,96.40
2018-10-21T04:49:37.690Z,96.10
2018-10-21T04:52:06.228Z,96.20
2018-10-21T04:54:34.752Z,96.10
2018-10-21T04:57:05.085Z,96.10
2018-10-21T04:59:33.546Z,96.40
2018-10-21T05:02:02.306Z,96.90
2018-10-21T05:04:30.856Z,96.90
2018-10-21T05:06:59.400Z,97.00
2018-10-21T05:09:27.870Z,97.20
2018-10-21T05:11:56.472Z,97.50
2018-10-21T05:14:25.246Z,97.70
2018-10-21T05:16:53.842Z,97.50
2018-10-21T05:19:22.306Z,97.50
2018-10-21T05:21:51.095Z,97.60
2018-10-21T05:24:19.601Z,97.70
2018-10-21T05:26:51.334Z,97.70
2018-10-21T05:29:28.951Z,98.00
2018-10-21T05:31:57.453Z,98.30
2018-10-21T05:34:26.178Z,98.50
2018-10-21T05:36:57.242Z,99.00
2018-10-21T05:39:26.631Z,99.30
2018-10-21T05:41:58.383Z,99.30
2018-10-21T05:44:27.503Z,99.20
2018-10-21T05:46:56.094Z,99.10
2018-10-21T05:49:24.559Z,98.50
2018-10-21T05:51:53.124Z,98.30
2018-10-21T05:54:21.812Z,98.10
2018-10-21T05:56:51.416Z,98.30
2018-10-21T05:59:20.006Z,98.20
2018-10-21T06:01:48.747Z,97.90
2018-10-21T06:04:18.784Z,97.90
2018-10-21T06:06:47.390Z,97.50
2018-10-21T06:09:16.022Z,97.80
2018-10-21T06:11:44.527Z,96.80
2018-10-21T06:14:13.135Z,96.70
2018-10-21T06:16:45.851Z,96.40
2018-10-21T06:19:19.075Z,96.50
2018-10-21T06:21:47.790Z,96.20
2018-10-21T06:24:17.081Z,95.90
2018-10-21T06:26:45.568Z,95.90
2018-10-21T06:29:14.547Z,95.90
2018-10-21T06:31:46.415Z,96.00
2018-10-21T06:34:14.993Z,95.60
2018-10-21T06:36:43.500Z,95.00
2018-10-21T06:39:12.152Z,94.80
2018-10-21T06:41:40.743Z,94.70
2018-10-21T06:49:40.283Z,95.40
2018-10-21T06:52:08.756Z,95.00
2018-10-21T06:54:37.329Z,94.90
2018-10-21T06:57:06.339Z,94.30
2018-10-21T06:59:34.815Z,94.40
2018-10-21T07:02:03.301Z,94.10
2018-10-21T07:04:31.962Z,94.20
2018-10-21T07:07:00.471Z,93.70
2018-10-21T07:09:29.008Z,94.30
2018-10-21T07:11:57.708Z,94.30
2018-10-21T07:14:26.306Z,94.30
2018-10-21T07:16:54.731Z,94.00
2018-10-21T07:19:23.257Z,94.20
2018-10-21T07:21:51.766Z,94.40
2018-10-21T07:24:20.233Z,94.60
2018-10-21T07:26:48.705Z,94.30
2018-10-21T07:29:17.271Z,94.00
2018-10-21T07:31:45.714Z,94.40
2018-10-21T07:34:14.194Z,94.00
2018-10-21T07:36:42.687Z,94.40
2018-10-21T07:39:11.806Z,93.90
2018-10-21T07:41:40.288Z,93.70
2018-10-21T07:44:08.873Z,94.30
2018-10-21T07:46:37.356Z,93.80
2018-10-21T07:49:05.861Z,93.60
2018-10-21T07:51:34.407Z,94.10
2018-10-21T07:54:02.993Z,93.40
2018-10-21T07:56:31.583Z,93.40
2018-10-21T07:59:00.167Z,93.40
2018-10-21T08:01:28.819Z,92.90
2018-10-21T08:03:57.327Z,92.30
2018-10-21T08:06:35.830Z,92.60
2018-10-21T08:09:06.546Z,92.50
2018-10-21T08:11:35.071Z,92.00
2018-10-21T08:14:03.656Z,91.60
2018-10-21T08:16:32.163Z,91.70
2018-10-21T08:19:00.695Z,92.00
2018-10-21T08:21:29.484Z,91.80
2018-10-21T08:23:57.968Z,91.60
2018-10-21T08:26:26.415Z,91.30
2018-10-21T08:28:55.012Z,91.60
2018-10-21T08:31:23.471Z,92.00
2018-10-21T08:33:51.951Z,91.80
2018-10-21T08:36:20.563Z,91.00
2018-10-21T08:38:49.348Z,91.50
2018-10-21T08:41:17.805Z,91.30
2018-10-21T08:43:46.316Z,91.20
2018-10-21T08:46:14.919Z,91.30
2018-10-21T08:48:43.347Z,91.50
2018-10-21T08:51:11.942Z,91.50
2018-10-21T08:53:40.598Z,91.20
2018-10-21T08:56:09.467Z,91.50
2018-10-21T08:58:37.954Z,91.90
2018-10-21T09:01:06.474Z,91.80
2018-10-21T09:03:35.257Z,91.30
2018-10-21T09:06:03.874Z,91.30
2018-10-21T09:08:32.424Z,91.60
2018-10-21T09:11:00.933Z,92.00
2018-10-21T09:13:32.648Z,91.30
2018-10-21T09:16:01.272Z,91.50
2018-10-21T09:18:29.828Z,91.20
2018-10-21T09:20:58.413Z,92.20
2018-10-21T09:23:26.885Z,91.00
2018-10-21T09:25:55.469Z,91.00
2018-10-21T09:28:23.952Z,90.50
2018-10-21T09:30:52.409Z,90.50
2018-10-21T09:33:20.950Z,90.30
2018-10-21T09:35:49.491Z,88.70
2018-10-21T09:38:18.073Z,88.90
2018-10-21T09:40:46.651Z,90.10
2018-10-21T09:43:15.160Z,89.60
2018-10-21T09:45:43.555Z,89.60
2018-10-21T09:48:15.184Z,89.30
2018-10-21T09:50:43.677Z,88.70
2018-10-21T09:53:12.157Z,89.40
2018-10-21T09:55:40.672Z,88.90
2018-10-21T09:58:09.265Z,86.70
2018-10-21T10:00:41.842Z,86.80
2018-10-21T10:03:10.355Z,85.80
2018-10-21T10:05:39.035Z,85.40
2018-10-21T10:08:07.606Z,84.20
2018-10-21T10:10:36.137Z,82.50
2018-10-21T10:13:04.724Z,82.10
2018-10-21T10:15:33.261Z,82.20
2018-10-21T10:18:01.842Z,81.10
2018-10-21T10:20:30.420Z,80.10
2018-10-21T10:22:58.884Z,77.60
2018-10-21T10:25:27.484Z,75.80
2018-10-21T10:27:56.108Z,74.60
2018-10-21T10:30:24.681Z,72.90
2018-10-21T10:32:53.230Z,69.00
2018-10-21T10:35:21.688Z,67.70
2018-10-21T10:37:50.166Z,67.20
2018-10-21T10:40:18.716Z,66.00
2018-10-21T10:42:47.242Z,65.60
2018-10-21T10:45:15.725Z,65.40
2018-10-21T10:47:44.313Z,65.30
2018-10-21T10:50:12.893Z,66.70
2018-10-21T10:52:41.364Z,66.70
2018-10-21T10:55:10.350Z,69.00
2018-10-21T10:57:38.944Z,68.60
2018-10-21T11:00:11.788Z,68.00
2018-10-21T11:02:40.404Z,67.40
2018-10-21T11:05:09.809Z,68.70
2018-10-21T11:07:38.390Z,70.20
2018-10-21T11:10:08.523Z,69.60
2018-10-21T11:12:37.086Z,71.60
2018-10-21T11:15:06.715Z,71.50
2018-10-21T11:17:35.282Z,69.40
2018-10-21T11:20:04.471Z,65.90
2018-10-21T11:22:33.049Z,64.00
2018-10-21T11:25:01.688Z,62.30
2018-10-21T11:27:30.239Z,61.00
2018-10-21T11:29:58.796Z,64.10
2018-10-21T11:32:27.324Z,63.60
2018-10-21T11:34:55.871Z,65.40
2018-10-21T11:37:24.551Z,64.30
2018-10-21T11:39:52.827Z,62.20
2018-10-21T11:42:21.296Z,58.10
2018-10-21T11:44:50.302Z,59.20
2018-10-21T11:47:18.758Z,60.70
2018-10-21T11:49:47.228Z,60.60
2018-10-21T11:52:15.873Z,60.40
2018-10-21T11:54:44.317Z,60.50
2018-10-21T11:57:12.794Z,60.30
2018-10-21T11:59:41.290Z,61.60
2018-10-21T12:02:09.961Z,58.90
2018-10-21T12:04:38.466Z,56.10
2018-10-21T12:07:07.039Z,57.50
2018-10-21T12:09:35.507Z,59.60
2018-10-21T12:12:04.006Z,60.50
2018-10-21T12:14:32.497Z,61.50
2018-10-21T12:17:00.974Z,62.40
2018-10-21T12:19:29.487Z,63.10
2018-10-21T12:21:58.015Z,64.30
2018-10-21T12:24:26.487Z,64.80
2018-10-21T12:26:55.474Z,66.00
2018-10-21T12:29:23.953Z,67.40
2018-10-21T12:31:52.425Z,68.20
2018-10-21T12:34:20.927Z,67.50
2018-10-21T12:36:49.440Z,66.90
2018-10-21T12:39:17.916Z,60.80
2018-10-21T12:41:46.454Z,58.10
2018-10-21T12:44:15.034Z,58.50
2018-10-21T12:46:43.488Z,60.30
2018-10-21T12:49:12.066Z,60.90
2018-10-21T12:51:40.547Z,62.30
2018-10-21T12:54:09.280Z,62.70
2018-10-21T12:56:37.644Z,65.10
2018-10-21T12:59:06.137Z,65.00
2018-10-21T13:01:34.701Z,58.50
2018-10-21T13:04:03.226Z,53.90
2018-10-21T13:06:31.751Z,51.00
2018-10-21T13:09:00.237Z,49.50
2018-10-21T13:11:28.786Z,51.00
2018-10-21T13:13:57.257Z,52.50
2018-10-21T13:16:25.707Z,52.20
2018-10-21T13:18:54.713Z,53.00
2018-10-21T13:21:23.142Z,52.40
2018-10-21T13:23:51.619Z,49.30
2018-10-21T13:26:20.119Z,47.50
2018-10-21T13:28:48.563Z,48.60
2018-10-21T13:31:17.097Z,50.10
2018-10-21T13:33:45.651Z,53.00
2018-10-21T13:36:14.111Z,54.60
2018-10-21T13:38:42.607Z,56.60
2018-10-21T13:41:11.119Z,59.00
2018-10-21T13:43:39.595Z,60.40
2018-10-21T13:46:08.085Z,62.10
2018-10-21T13:48:36.650Z,63.20
2018-10-21T13:51:05.830Z,63.80
2018-10-21T13:53:34.502Z,64.60
2018-10-21T13:56:02.997Z,64.60
2018-10-21T13:58:31.527Z,65.00
2018-10-21T14:01:00.118Z,65.40
2018-10-21T14:03:28.734Z,65.80
2018-10-21T14:05:57.210Z,65.20
2018-10-21T14:08:25.794Z,64.40
2018-10-21T14:10:54.380Z,60.20
2018-10-21T14:13:22.954Z,57.30
2018-10-21T14:15:51.470Z,52.80
2018-10-21T14:18:19.970Z,49.40
2018-10-21T14:20:48.428Z,48.20
2018-10-21T14:23:16.887Z,47.10
2018-10-21T14:25:45.450Z,48.10
2018-10-21T14:28:13.947Z,50.90
2018-10-21T14:30:42.462Z,51.10
2018-10-21T14:33:11.033Z,51.60
2018-10-21T14:35:39.517Z,50.90
2018-10-21T14:38:11.337Z,48.80
2018-10-21T14:40:39.760Z,47.10
2018-10-21T14:43:08.237Z,48.20
2018-10-21T14:45:37.236Z,48.40
2018-10-21T14:48:05.733Z,51.40
2018-10-21T14:50:34.170Z,50.30
2018-10-21T14:53:02.713Z,47.60
2018-10-21T14:55:31.316Z,46.30
2018-10-21T14:57:59.804Z,44.50
2018-10-21T15:00:28.388Z,44.20
2018-10-21T15:02:56.793Z,46.10
2018-10-21T15:05:25.333Z,48.10
2018-10-21T15:07:53.918Z,48.80
2018-10-21T15:10:22.537Z,50.10
2018-10-21T15:12:50.927Z,51.70
2018-10-21T15:15:19.391Z,51.30
2018-10-21T15:17:47.880Z,49.60
2018-10-21T15:20:16.462Z,50.70
2018-10-21T15:22:44.959Z,49.30
2018-10-21T15:25:13.456Z,51.50
2018-10-21T15:27:42.460Z,53.40
2018-10-21T15:30:11.943Z,54.60
2018-10-21T15:32:40.983Z,55.40
2018-10-21T15:35:09.796Z,56.60
2018-10-21T15:37:38.300Z,58.20
2018-10-21T15:40:08.257Z,59.40
2018-10-21T15:42:37.001Z,60.90
2018-10-21T15:45:07.855Z,63.70
2018-10-21T15:47:36.451Z,65.90
2018-10-21T15:50:05.696Z,67.70
2018-10-21T15:52:34.134Z,71.60
2018-10-21T15:55:03.197Z,74.30
2018-10-21T15:57:34.872Z,77.00
2018-10-21T16:00:03.439Z,78.20
2018-10-21T16:02:32.042Z,80.50
2018-10-21T16:05:00.669Z,82.80
2018-10-21T16:07:29.295Z,85.10
2018-10-21T16:09:58.976Z,86.80
2018-10-21T16:12:27.955Z,89.00
2018-10-21T16:14:56.583Z,90.00
2018-10-21T16:17:25.078Z,90.60
2018-10-21T16:19:53.646Z,90.90
2018-10-21T16:22:22.119Z,91.60
2018-10-21T16:24:50.601Z,92.00
2018-10-21T16:27:19.184Z,92.50
2018-10-21T16:29:47.762Z,93.10
2018-10-21T16:32:16.322Z,93.50
2018-10-21T16:34:44.733Z,93.80
2018-10-21T16:37:13.250Z,94.00
2018-10-21T16:39:41.742Z,94.30
2018-10-21T16:42:10.360Z,94.60
2018-10-21T16:44:38.846Z,94.90
2018-10-21T16:47:07.323Z,95.20
2018-10-21T16:49:35.847Z,95.00
2018-10-21T16:52:04.491Z,95.00
2018-10-21T16:54:33.130Z,94.90
2018-10-21T16:57:01.580Z,95.00
2018-10-21T16:59:30.056Z,95.00
2018-10-21T17:01:58.480Z,95.00
2018-10-21T17:04:26.985Z,94.90
2018-10-21T17:06:55.716Z,95.20
2018-10-21T17:09:24.560Z,95.40
2018-10-21T17:11:53.152Z,95.60
2018-10-21T17:14:21.656Z,95.70
2018-10-21T17:16:50.211Z,95.80
2018-10-21T17:19:18.688Z,96.30
2018-10-21T17:21:47.670Z,96.00
2018-10-21T17:24:16.166Z,95.90
2018-10-21T17:26:44.636Z,95.90
2018-10-21T17:29:13.324Z,95.80
2018-10-21T17:31:41.985Z,95.70
2018-10-21T17:34:13.663Z,95.80
2018-10-21T17:36:42.344Z,95.80
2018-10-21T17:39:13.695Z,95.60
2018-10-21T17:41:42.350Z,95.70
2018-10-21T17:44:14.097Z,95.70
2018-10-21T17:46:42.941Z,96.00
2018-10-21T17:49:11.440Z,96.30
2018-10-21T17:51:39.890Z,96.30
2018-10-21T17:54:08.485Z,96.30
2018-10-21T17:56:41.343Z,96.20
2018-10-21T17:59:09.897Z,96.40
2018-10-21T18:01:42.502Z,96.60
2018-10-21T18:04:12.367Z,95.90
2018-10-21T18:06:47.315Z,96.30
2018-10-21T18:09:16.928Z,96.20
2018-10-21T18:11:47.918Z,96.50
2018-10-21T18:14:16.416Z,96.80
2018-10-21T18:16:44.949Z,96.90
2018-10-21T18:19:13.748Z,96.90
2018-10-21T18:21:42.196Z,97.00
2018-10-21T18:24:10.802Z,97.30
2018-10-21T18:26:40.815Z,97.10
2018-10-21T18:29:10.468Z,97.30
2018-10-21T18:31:43.087Z,96.90
2018-10-21T18:34:12.764Z,96.80
2018-10-21T18:36:46.305Z,96.70
2018-10-21T18:39:15.296Z,96.90
2018-10-21T18:41:44.978Z,97.30
2018-10-21T18:44:13.459Z,97.40
2018-10-21T18:46:46.144Z,97.60
2018-10-21T18:49:15.338Z,98.00
2018-10-21T18:51:44.962Z,97.90
2018-10-21T18:54:13.457Z,98.00
2018-10-21T18:56:42.221Z,98.40
2018-10-21T18:59:11.801Z,98.60
2018-10-21T19:01:40.931Z,99.30
2018-10-21T19:04:09.496Z,99.50
2018-10-21T19:06:39.002Z,99.00
2018-10-21T19:09:13.781Z,98.80
2018-10-21T19:11:42.438Z,98.50
2018-10-21T19:14:12.265Z,98.60
2018-10-21T19:16:40.767Z,98.60
2018-10-21T19:19:09.950Z,98.60
2018-10-21T19:21:38.863Z,98.80
2018-10-21T19:24:08.279Z,99.20
2018-10-21T19:26:40.050Z,99.10
2018-10-21T19:29:09.672Z,99.20
2018-10-21T19:31:38.187Z,99.60
2018-10-21T19:34:06.841Z,99.70
2018-10-21T19:36:39.878Z,99.70
2018-10-21T19:39:11.679Z,99.90
2018-10-21T19:41:42.832Z,99.90
2018-10-21T19:44:12.215Z,99.90
2018-10-21T19:46:41.894Z,99.90
2018-10-21T19:49:10.554Z,99.40
2018-10-21T19:51:42.845Z,99.80
2018-10-21T19:54:11.532Z,99.60
2018-10-21T19:56:39.993Z,99.90
2018-10-21T19:59:08.520Z,99.80
2018-10-21T20:01:37.092Z,99.90
2018-10-21T20:04:06.751Z,99.90
2018-10-21T20:06:35.634Z,99.90
2018-10-21T20:09:05.599Z,99.90
2018-10-21T20:11:34.440Z,99.90
2018-10-21T20:14:02.908Z,99.90
2018-10-21T20:16:31.564Z,99.90
2018-10-21T20:19:00.155Z,99.90
2018-10-21T20:21:28.683Z,99.90
2018-10-21T20:23:57.303Z,99.90
2018-10-21T20:26:25.776Z,99.90
2018-10-21T20:28:54.371Z,99.90
2018-10-21T20:31:22.872Z,99.90
2018-10-21T20:33:51.403Z,99.90
2018-10-21T20:36:19.892Z,99.90
2018-10-21T20:38:48.376Z,99.90
2018-10-21T20:41:16.879Z,99.90
2018-10-21T20:43:45.382Z,99.90
2018-10-21T20:46:13.983Z,99.90
2018-10-21T20:48:42.360Z,99.90
2018-10-21T20:51:10.898Z,99.90
2018-10-21T20:53:39.290Z,99.90
2018-10-21T20:56:10.689Z,99.90
2018-10-21T20:58:39.237Z,99.90
2018-10-21T21:01:07.897Z,99.90
2018-10-21T21:03:36.400Z,99.90
2018-10-21T21:06:04.974Z,99.90
2018-10-21T21:08:33.520Z,99.90
2018-10-21T21:11:01.989Z,99.90
2018-10-21T21:13:30.473Z,99.90
2018-10-21T21:15:58.989Z,99.90
2018-10-21T21:18:27.520Z,99.90
2018-10-21T21:20:55.979Z,99.90
2018-10-21T21:23:24.601Z,99.90
2018-10-21T21:25:53.072Z,99.90
2018-10-21T21:28:21.528Z,99.90
2018-10-21T21:30:50.070Z,99.90
2018-10-21T21:33:18.613Z,99.90
2018-10-21T21:35:47.070Z,99.90
2018-10-21T21:38:15.674Z,99.90
2018-10-21T21:40:44.153Z,99.90
2018-10-21T21:43:12.742Z,99.90
2018-10-21T21:45:41.324Z,99.90
2018-10-21T21:48:09.851Z,99.90
2018-10-21T21:50:38.260Z,99.90
2018-10-21T21:53:06.786Z,99.90
2018-10-21T21:55:35.329Z,99.90
2018-10-21T21:58:03.850Z,99.90
2018-10-21T22:00:32.294Z,99.90
2018-10-21T22:03:00.765Z,99.90
2018-10-21T22:05:29.196Z,99.90
2018-10-21T22:07:57.748Z,99.90
2018-10-21T22:10:29.087Z,99.90
2018-10-21T22:12:57.661Z,99.90
2018-10-21T22:15:26.121Z,99.90
2018-10-21T22:17:54.577Z,99.90
2018-10-21T22:20:23.076Z,99.90
2018-10-21T22:22:51.556Z,99.90
2018-10-21T22:25:20.028Z,99.90
2018-10-21T22:27:48.497Z,99.90
2018-10-21T22:30:17.052Z,99.90
2018-10-21T22:32:45.531Z,99.90
2018-10-21T22:35:14.063Z,99.90
2018-10-21T22:37:42.532Z,99.90
2018-10-21T22:40:11.050Z,99.90
2018-10-21T22:42:39.506Z,99.90
2018-10-21T22:45:08.727Z,99.90
2018-10-21T22:47:37.407Z,99.90
2018-10-21T22:50:07.753Z,99.90
2018-10-21T22:52:36.212Z,99.90
2018-10-21T22:55:05.242Z,99.90
2018-10-21T22:57:33.806Z,99.90
2018-10-21T23:00:02.416Z,99.90
2018-10-21T23:02:30.951Z,99.90
2018-10-21T23:04:59.451Z,99.90
2018-10-21T23:07:30.854Z,99.90
2018-10-21T23:09:59.709Z,99.90
2018-10-21T23:12:28.164Z,99.90
2018-10-21T23:14:56.683Z,99.90
2018-10-21T23:17:25.330Z,99.90
2018-10-21T23:19:53.781Z,99.90
2018-10-21T23:22:22.247Z,99.90
2018-10-21T23:24:50.740Z,99.90
2018-10-21T23:27:20.099Z,99.90
2018-10-21T23:29:48.548Z,99.90
2018-10-21T23:32:17.041Z,99.90
2018-10-21T23:34:45.585Z,99.90
2018-10-21T23:37:14.014Z,99.90
2018-10-21T23:39:42.513Z,99.90
2018-10-21T23:42:11.033Z,99.90
2018-10-21T23:44:39.487Z,99.90
2018-10-21T23:47:07.963Z,99.90
2018-10-21T23:49:36.556Z,99.90
2018-10-21T23:52:05.864Z,99.90
2018-10-21T23:54:34.544Z,99.90
2018-10-21T23:57:07.230Z,99.90
2018-10-21T23:59:36.588Z,99.90
